sensor_id;sensor_type;location;lat;lon;timestamp;P1;durP1;ratioP1;P2;durP2;ratioP2
68178;SDS011;54998;42.656;23.382;2023-02-21T00:00:22;7.32;;;3.60;;
68178;SDS011;54998;42.656;23.382;2023-02-21T00:03:06;10.32;;;3.97;;
68178;SDS011;54998;42.656;23.382;2023-02-21T00:05:50;9.32;;;4.22;;
68178;SDS011;54998;42.656;23.382;2023-02-21T00:08:34;11.45;;;5.05;;
68178;SDS011;54998;42.656;23.382;2023-02-21T00:11:18;9.63;;;4.45;;
68178;SDS011;54998;42.656;23.382;2023-02-21T00:14:02;10.30;;;4.43;;
68178;SDS011;54998;42.656;23.382;2023-02-21T00:16:46;9.32;;;4.13;;
68178;SDS011;54998;42.656;23.382;2023-02-21T00:19:30;8.18;;;3.50;;
68178;SDS011;54998;42.656;23.382;2023-02-21T00:22:13;7.10;;;3.17;;
68178;SDS011;54998;42.656;23.382;2023-02-21T00:24:58;6.95;;;3.45;;
68178;SDS011;54998;42.656;23.382;2023-02-21T00:27:42;6.75;;;2.95;;
68178;SDS011;54998;42.656;23.382;2023-02-21T00:30:26;8.65;;;3.20;;
68178;SDS011;54998;42.656;23.382;2023-02-21T00:38:27;6.53;;;2.90;;
68178;SDS011;54998;42.656;23.382;2023-02-21T00:41:11;6.82;;;2.67;;
68178;SDS011;54998;42.656;23.382;2023-02-21T00:43:55;6.85;;;3.20;;
68178;SDS011;54998;42.656;23.382;2023-02-21T00:46:39;6.57;;;3.30;;
68178;SDS011;54998;42.656;23.382;2023-02-21T00:49:23;6.00;;;3.55;;
68178;SDS011;54998;42.656;23.382;2023-02-21T00:52:07;8.70;;;2.90;;
68178;SDS011;54998;42.656;23.382;2023-02-21T00:54:51;8.15;;;3.33;;
68178;SDS011;54998;42.656;23.382;2023-02-21T00:57:35;5.85;;;3.17;;
68178;SDS011;54998;42.656;23.382;2023-02-21T01:00:20;5.57;;;2.92;;
68178;SDS011;54998;42.656;23.382;2023-02-21T01:03:05;8.15;;;3.28;;
68178;SDS011;54998;42.656;23.382;2023-02-21T01:05:50;7.43;;;3.40;;
68178;SDS011;54998;42.656;23.382;2023-02-21T01:08:35;7.18;;;3.35;;
68178;SDS011;54998;42.656;23.382;2023-02-21T01:11:20;10.88;;;3.85;;
68178;SDS011;54998;42.656;23.382;2023-02-21T01:14:05;7.38;;;2.97;;
68178;SDS011;54998;42.656;23.382;2023-02-21T01:16:50;5.63;;;2.83;;
68178;SDS011;54998;42.656;23.382;2023-02-21T01:19:34;6.80;;;3.20;;
68178;SDS011;54998;42.656;23.382;2023-02-21T01:22:18;6.18;;;2.85;;
68178;SDS011;54998;42.656;23.382;2023-02-21T01:25:02;5.85;;;3.08;;
68178;SDS011;54998;42.656;23.382;2023-02-21T01:27:46;6.70;;;2.72;;
68178;SDS011;54998;42.656;23.382;2023-02-21T01:30:30;8.48;;;3.00;;
68178;SDS011;54998;42.656;23.382;2023-02-21T01:33:14;6.88;;;2.88;;
68178;SDS011;54998;42.656;23.382;2023-02-21T01:35:58;6.80;;;2.88;;
68178;SDS011;54998;42.656;23.382;2023-02-21T01:38:42;8.35;;;3.17;;
68178;SDS011;54998;42.656;23.382;2023-02-21T01:41:25;6.65;;;3.42;;
68178;SDS011;54998;42.656;23.382;2023-02-21T01:47:20;6.57;;;3.00;;
68178;SDS011;54998;42.656;23.382;2023-02-21T01:50:09;8.18;;;3.25;;
68178;SDS011;54998;42.656;23.382;2023-02-21T01:53:04;6.93;;;2.75;;
68178;SDS011;54998;42.656;23.382;2023-02-21T01:55:53;7.32;;;2.97;;
68178;SDS011;54998;42.656;23.382;2023-02-21T02:01:28;4.55;;;1.80;;
68178;SDS011;54998;42.656;23.382;2023-02-21T02:04:17;4.63;;;2.63;;
68178;SDS011;54998;42.656;23.382;2023-02-21T02:07:02;5.50;;;2.05;;
68178;SDS011;54998;42.656;23.382;2023-02-21T02:09:46;6.88;;;2.53;;
68178;SDS011;54998;42.656;23.382;2023-02-21T02:12:34;8.05;;;2.42;;
68178;SDS011;54998;42.656;23.382;2023-02-21T02:15:20;5.32;;;2.38;;
68178;SDS011;54998;42.656;23.382;2023-02-21T02:39:40;4.55;;;2.80;;
68178;SDS011;54998;42.656;23.382;2023-02-21T02:47:59;6.85;;;2.60;;
68178;SDS011;54998;42.656;23.382;2023-02-21T02:50:30;8.05;;;2.63;;
68178;SDS011;54998;42.656;23.382;2023-02-21T02:52:59;6.90;;;2.75;;
68178;SDS011;54998;42.656;23.382;2023-02-21T02:58:12;6.82;;;2.85;;
68178;SDS011;54998;42.656;23.382;2023-02-21T03:00:39;9.25;;;3.08;;
68178;SDS011;54998;42.656;23.382;2023-02-21T03:11:16;6.03;;;2.60;;
68178;SDS011;54998;42.656;23.382;2023-02-21T03:16:32;4.45;;;2.55;;
68178;SDS011;54998;42.656;23.382;2023-02-21T03:19:04;6.47;;;2.53;;
68178;SDS011;54998;42.656;23.382;2023-02-21T03:21:36;8.10;;;2.55;;
68178;SDS011;54998;42.656;23.382;2023-02-21T03:24:07;5.93;;;2.38;;
68178;SDS011;54998;42.656;23.382;2023-02-21T03:26:36;5.63;;;2.38;;
68178;SDS011;54998;42.656;23.382;2023-02-21T03:29:04;6.82;;;2.67;;
68178;SDS011;54998;42.656;23.382;2023-02-21T03:31:35;5.18;;;2.50;;
68178;SDS011;54998;42.656;23.382;2023-02-21T03:34:05;5.22;;;2.22;;
68178;SDS011;54998;42.656;23.382;2023-02-21T03:36:31;5.38;;;2.63;;
68178;SDS011;54998;42.656;23.382;2023-02-21T03:38:57;4.28;;;2.33;;
68178;SDS011;54998;42.656;23.382;2023-02-21T03:41:22;5.90;;;2.58;;
68178;SDS011;54998;42.656;23.382;2023-02-21T03:43:47;8.32;;;3.85;;
68178;SDS011;54998;42.656;23.382;2023-02-21T03:46:13;5.03;;;2.42;;
68178;SDS011;54998;42.656;23.382;2023-02-21T03:48:38;4.50;;;1.98;;
68178;SDS011;54998;42.656;23.382;2023-02-21T03:51:04;4.32;;;2.40;;
68178;SDS011;54998;42.656;23.382;2023-02-21T03:53:29;4.68;;;1.92;;
68178;SDS011;54998;42.656;23.382;2023-02-21T03:55:54;4.78;;;2.10;;
68178;SDS011;54998;42.656;23.382;2023-02-21T03:58:20;5.85;;;2.65;;
68178;SDS011;54998;42.656;23.382;2023-02-21T04:00:45;5.97;;;2.20;;
68178;SDS011;54998;42.656;23.382;2023-02-21T04:03:11;4.38;;;2.40;;
68178;SDS011;54998;42.656;23.382;2023-02-21T04:05:37;7.90;;;2.67;;
68178;SDS011;54998;42.656;23.382;2023-02-21T04:08:02;4.03;;;2.42;;
68178;SDS011;54998;42.656;23.382;2023-02-21T04:10:28;11.23;;;5.30;;
68178;SDS011;54998;42.656;23.382;2023-02-21T04:12:53;10.50;;;3.63;;
68178;SDS011;54998;42.656;23.382;2023-02-21T04:15:19;4.85;;;1.95;;
68178;SDS011;54998;42.656;23.382;2023-02-21T04:17:44;6.38;;;2.30;;
68178;SDS011;54998;42.656;23.382;2023-02-21T04:20:10;5.22;;;2.20;;
68178;SDS011;54998;42.656;23.382;2023-02-21T04:22:35;6.28;;;2.30;;
68178;SDS011;54998;42.656;23.382;2023-02-21T04:25:00;4.75;;;2.20;;
68178;SDS011;54998;42.656;23.382;2023-02-21T04:27:26;5.55;;;2.65;;
68178;SDS011;54998;42.656;23.382;2023-02-21T04:29:51;7.22;;;3.20;;
68178;SDS011;54998;42.656;23.382;2023-02-21T04:32:17;4.50;;;2.28;;
68178;SDS011;54998;42.656;23.382;2023-02-21T04:34:42;5.55;;;2.22;;
68178;SDS011;54998;42.656;23.382;2023-02-21T04:37:07;4.90;;;2.30;;
68178;SDS011;54998;42.656;23.382;2023-02-21T04:39:33;4.80;;;2.13;;
68178;SDS011;54998;42.656;23.382;2023-02-21T04:41:58;7.13;;;2.55;;
68178;SDS011;54998;42.656;23.382;2023-02-21T04:44:23;31.27;;;10.95;;
68178;SDS011;54998;42.656;23.382;2023-02-21T04:46:49;7.05;;;3.22;;
68178;SDS011;54998;42.656;23.382;2023-02-21T04:49:14;5.03;;;2.45;;
68178;SDS011;54998;42.656;23.382;2023-02-21T04:51:40;7.72;;;2.67;;
68178;SDS011;54998;42.656;23.382;2023-02-21T04:54:05;6.28;;;3.15;;
68178;SDS011;54998;42.656;23.382;2023-02-21T04:56:31;9.45;;;2.42;;
68178;SDS011;54998;42.656;23.382;2023-02-21T04:58:57;5.28;;;3.28;;
68178;SDS011;54998;42.656;23.382;2023-02-21T05:01:25;6.82;;;3.35;;
68178;SDS011;54998;42.656;23.382;2023-02-21T05:03:52;4.90;;;2.90;;
68178;SDS011;54998;42.656;23.382;2023-02-21T05:06:21;8.63;;;2.97;;
68178;SDS011;54998;42.656;23.382;2023-02-21T05:08:48;5.03;;;3.17;;
68178;SDS011;54998;42.656;23.382;2023-02-21T05:11:15;7.85;;;2.92;;
68178;SDS011;54998;42.656;23.382;2023-02-21T05:13:41;5.68;;;2.40;;
68178;SDS011;54998;42.656;23.382;2023-02-21T05:16:07;4.97;;;2.45;;
68178;SDS011;54998;42.656;23.382;2023-02-21T05:18:32;4.75;;;2.60;;
68178;SDS011;54998;42.656;23.382;2023-02-21T05:20:58;9.80;;;2.90;;
68178;SDS011;54998;42.656;23.382;2023-02-21T05:23:24;7.90;;;2.40;;
68178;SDS011;54998;42.656;23.382;2023-02-21T05:26:03;5.93;;;2.60;;
68178;SDS011;54998;42.656;23.382;2023-02-21T05:28:29;4.63;;;1.88;;
68178;SDS011;54998;42.656;23.382;2023-02-21T05:30:55;5.70;;;2.22;;
68178;SDS011;54998;42.656;23.382;2023-02-21T05:33:20;4.75;;;2.22;;
68178;SDS011;54998;42.656;23.382;2023-02-21T05:35:46;4.97;;;2.42;;
68178;SDS011;54998;42.656;23.382;2023-02-21T05:38:12;6.22;;;2.63;;
68178;SDS011;54998;42.656;23.382;2023-02-21T05:40:38;7.45;;;2.78;;
68178;SDS011;54998;42.656;23.382;2023-02-21T05:43:03;5.88;;;2.65;;
68178;SDS011;54998;42.656;23.382;2023-02-21T05:45:29;5.68;;;2.20;;
68178;SDS011;54998;42.656;23.382;2023-02-21T05:47:54;7.38;;;3.08;;
68178;SDS011;54998;42.656;23.382;2023-02-21T05:50:24;5.97;;;3.03;;
68178;SDS011;54998;42.656;23.382;2023-02-21T05:52:50;6.95;;;3.05;;
68178;SDS011;54998;42.656;23.382;2023-02-21T05:55:16;7.78;;;3.42;;
68178;SDS011;54998;42.656;23.382;2023-02-21T05:57:42;8.05;;;3.38;;
68178;SDS011;54998;42.656;23.382;2023-02-21T06:00:12;11.73;;;3.97;;
68178;SDS011;54998;42.656;23.382;2023-02-21T06:02:41;7.45;;;3.28;;
68178;SDS011;54998;42.656;23.382;2023-02-21T06:05:07;7.80;;;3.50;;
68178;SDS011;54998;42.656;23.382;2023-02-21T06:07:32;5.43;;;3.08;;
68178;SDS011;54998;42.656;23.382;2023-02-21T06:09:58;12.02;;;3.75;;
68178;SDS011;54998;42.656;23.382;2023-02-21T06:12:23;7.38;;;3.60;;
68178;SDS011;54998;42.656;23.382;2023-02-21T06:14:48;9.48;;;3.90;;
68178;SDS011;54998;42.656;23.382;2023-02-21T06:17:14;12.48;;;4.70;;
68178;SDS011;54998;42.656;23.382;2023-02-21T06:19:39;17.52;;;5.20;;
68178;SDS011;54998;42.656;23.382;2023-02-21T06:22:04;7.38;;;3.83;;
68178;SDS011;54998;42.656;23.382;2023-02-21T06:24:30;13.40;;;4.00;;
68178;SDS011;54998;42.656;23.382;2023-02-21T06:26:55;11.43;;;4.85;;
68178;SDS011;54998;42.656;23.382;2023-02-21T06:29:21;12.55;;;4.32;;
68178;SDS011;54998;42.656;23.382;2023-02-21T06:31:46;13.18;;;4.97;;
68178;SDS011;54998;42.656;23.382;2023-02-21T06:34:12;12.15;;;5.38;;
68178;SDS011;54998;42.656;23.382;2023-02-21T06:36:38;15.38;;;4.85;;
68178;SDS011;54998;42.656;23.382;2023-02-21T06:39:03;15.32;;;5.18;;
68178;SDS011;54998;42.656;23.382;2023-02-21T06:41:29;12.30;;;4.82;;
68178;SDS011;54998;42.656;23.382;2023-02-21T06:43:56;9.77;;;4.57;;
68178;SDS011;54998;42.656;23.382;2023-02-21T06:46:23;14.85;;;4.70;;
68178;SDS011;54998;42.656;23.382;2023-02-21T06:48:50;10.80;;;5.03;;
68178;SDS011;54998;42.656;23.382;2023-02-21T06:51:16;13.10;;;5.10;;
68178;SDS011;54998;42.656;23.382;2023-02-21T06:53:42;16.25;;;5.40;;
68178;SDS011;54998;42.656;23.382;2023-02-21T06:56:10;6.43;;;3.83;;
68178;SDS011;54998;42.656;23.382;2023-02-21T06:58:36;10.48;;;4.57;;
68178;SDS011;54998;42.656;23.382;2023-02-21T07:01:01;8.48;;;4.28;;
68178;SDS011;54998;42.656;23.382;2023-02-21T07:03:27;9.82;;;4.72;;
68178;SDS011;54998;42.656;23.382;2023-02-21T07:05:53;10.88;;;4.72;;
68178;SDS011;54998;42.656;23.382;2023-02-21T07:08:18;11.60;;;5.30;;
68178;SDS011;54998;42.656;23.382;2023-02-21T07:10:44;9.85;;;4.68;;
68178;SDS011;54998;42.656;23.382;2023-02-21T07:13:09;11.60;;;4.38;;
68178;SDS011;54998;42.656;23.382;2023-02-21T07:15:35;9.07;;;5.07;;
68178;SDS011;54998;42.656;23.382;2023-02-21T07:18:00;13.15;;;5.47;;
68178;SDS011;54998;42.656;23.382;2023-02-21T07:20:25;9.77;;;5.95;;
68178;SDS011;54998;42.656;23.382;2023-02-21T07:22:51;15.43;;;4.90;;
68178;SDS011;54998;42.656;23.382;2023-02-21T07:25:18;11.48;;;5.07;;
68178;SDS011;54998;42.656;23.382;2023-02-21T07:27:45;9.43;;;5.07;;
68178;SDS011;54998;42.656;23.382;2023-02-21T07:30:12;10.77;;;5.18;;
68178;SDS011;54998;42.656;23.382;2023-02-21T07:32:38;11.50;;;5.32;;
68178;SDS011;54998;42.656;23.382;2023-02-21T07:35:04;10.77;;;5.10;;
68178;SDS011;54998;42.656;23.382;2023-02-21T07:37:29;9.38;;;4.55;;
68178;SDS011;54998;42.656;23.382;2023-02-21T07:39:55;13.90;;;5.60;;
68178;SDS011;54998;42.656;23.382;2023-02-21T07:42:20;10.00;;;5.38;;
68178;SDS011;54998;42.656;23.382;2023-02-21T07:44:45;13.52;;;5.78;;
68178;SDS011;54998;42.656;23.382;2023-02-21T07:47:11;12.80;;;5.85;;
68178;SDS011;54998;42.656;23.382;2023-02-21T07:49:37;16.63;;;6.07;;
68178;SDS011;54998;42.656;23.382;2023-02-21T07:52:03;13.80;;;6.00;;
68178;SDS011;54998;42.656;23.382;2023-02-21T07:54:29;13.00;;;5.70;;
68178;SDS011;54998;42.656;23.382;2023-02-21T07:56:55;15.65;;;6.15;;
68178;SDS011;54998;42.656;23.382;2023-02-21T07:59:20;13.43;;;6.10;;
68178;SDS011;54998;42.656;23.382;2023-02-21T08:01:46;10.68;;;5.60;;
68178;SDS011;54998;42.656;23.382;2023-02-21T08:04:11;13.80;;;5.90;;
68178;SDS011;54998;42.656;23.382;2023-02-21T08:06:37;14.02;;;6.10;;
68178;SDS011;54998;42.656;23.382;2023-02-21T08:09:03;16.98;;;6.53;;
68178;SDS011;54998;42.656;23.382;2023-02-21T08:11:29;15.20;;;5.90;;
68178;SDS011;54998;42.656;23.382;2023-02-21T08:13:54;12.10;;;5.65;;
68178;SDS011;54998;42.656;23.382;2023-02-21T08:16:20;15.70;;;6.28;;
68178;SDS011;54998;42.656;23.382;2023-02-21T08:18:48;12.55;;;5.78;;
68178;SDS011;54998;42.656;23.382;2023-02-21T08:21:15;11.40;;;5.72;;
68178;SDS011;54998;42.656;23.382;2023-02-21T08:23:40;14.23;;;6.10;;
68178;SDS011;54998;42.656;23.382;2023-02-21T08:26:06;13.10;;;5.32;;
68178;SDS011;54998;42.656;23.382;2023-02-21T08:28:31;10.85;;;5.28;;
68178;SDS011;54998;42.656;23.382;2023-02-21T08:30:57;10.02;;;5.32;;
68178;SDS011;54998;42.656;23.382;2023-02-21T08:33:23;13.95;;;5.40;;
68178;SDS011;54998;42.656;23.382;2023-02-21T08:35:48;13.52;;;5.75;;
68178;SDS011;54998;42.656;23.382;2023-02-21T08:38:13;10.75;;;5.35;;
68178;SDS011;54998;42.656;23.382;2023-02-21T08:40:39;12.70;;;4.75;;
68178;SDS011;54998;42.656;23.382;2023-02-21T08:43:04;9.07;;;4.20;;
68178;SDS011;54998;42.656;23.382;2023-02-21T08:45:30;12.80;;;5.25;;
68178;SDS011;54998;42.656;23.382;2023-02-21T08:47:56;9.57;;;5.05;;
68178;SDS011;54998;42.656;23.382;2023-02-21T08:52:50;13.90;;;4.82;;
68178;SDS011;54998;42.656;23.382;2023-02-21T08:55:16;9.85;;;5.35;;
68178;SDS011;54998;42.656;23.382;2023-02-21T08:57:43;12.82;;;5.15;;
68178;SDS011;54998;42.656;23.382;2023-02-21T09:00:10;12.57;;;4.45;;
68178;SDS011;54998;42.656;23.382;2023-02-21T09:02:37;11.02;;;4.35;;
68178;SDS011;54998;42.656;23.382;2023-02-21T09:05:07;9.30;;;4.35;;
68178;SDS011;54998;42.656;23.382;2023-02-21T09:07:37;12.77;;;4.45;;
68178;SDS011;54998;42.656;23.382;2023-02-21T09:10:03;8.38;;;4.18;;
68178;SDS011;54998;42.656;23.382;2023-02-21T09:12:29;12.23;;;4.63;;
68178;SDS011;54998;42.656;23.382;2023-02-21T09:14:55;13.38;;;4.78;;
68178;SDS011;54998;42.656;23.382;2023-02-21T09:17:20;12.38;;;4.97;;
68178;SDS011;54998;42.656;23.382;2023-02-21T09:19:46;9.40;;;4.30;;
68178;SDS011;54998;42.656;23.382;2023-02-21T09:24:47;16.27;;;5.00;;
68178;SDS011;54998;42.656;23.382;2023-02-21T09:27:13;9.65;;;4.10;;
68178;SDS011;54998;42.656;23.382;2023-02-21T09:29:41;11.95;;;4.68;;
68178;SDS011;54998;42.656;23.382;2023-02-21T09:32:07;11.50;;;3.92;;
68178;SDS011;54998;42.656;23.382;2023-02-21T09:34:33;9.13;;;4.05;;
68178;SDS011;54998;42.656;23.382;2023-02-21T09:36:58;10.68;;;4.38;;
68178;SDS011;54998;42.656;23.382;2023-02-21T09:39:29;10.05;;;4.53;;
68178;SDS011;54998;42.656;23.382;2023-02-21T09:41:55;12.85;;;4.22;;
68178;SDS011;54998;42.656;23.382;2023-02-21T09:44:22;10.98;;;4.05;;
68178;SDS011;54998;42.656;23.382;2023-02-21T09:46:52;9.90;;;3.80;;
68178;SDS011;54998;42.656;23.382;2023-02-21T09:49:38;6.78;;;3.65;;
68178;SDS011;54998;42.656;23.382;2023-02-21T09:52:06;10.70;;;3.60;;
68178;SDS011;54998;42.656;23.382;2023-02-21T09:54:57;11.18;;;3.97;;
68178;SDS011;54998;42.656;23.382;2023-02-21T09:57:26;11.07;;;4.22;;
68178;SDS011;54998;42.656;23.382;2023-02-21T09:59:51;12.35;;;4.70;;
68178;SDS011;54998;42.656;23.382;2023-02-21T10:05:15;8.43;;;3.85;;
68178;SDS011;54998;42.656;23.382;2023-02-21T10:16:15;7.57;;;3.80;;
68178;SDS011;54998;42.656;23.382;2023-02-21T10:21:21;8.90;;;4.15;;
68178;SDS011;54998;42.656;23.382;2023-02-21T10:23:52;10.68;;;4.38;;
68178;SDS011;54998;42.656;23.382;2023-02-21T10:26:23;16.75;;;4.90;;
68178;SDS011;54998;42.656;23.382;2023-02-21T10:28:51;7.55;;;4.15;;
68178;SDS011;54998;42.656;23.382;2023-02-21T10:31:39;8.70;;;4.75;;
68178;SDS011;54998;42.656;23.382;2023-02-21T10:34:08;7.88;;;4.25;;
68178;SDS011;54998;42.656;23.382;2023-02-21T10:36:44;10.25;;;3.80;;
68178;SDS011;54998;42.656;23.382;2023-02-21T10:39:12;7.95;;;3.85;;
68178;SDS011;54998;42.656;23.382;2023-02-21T10:41:41;8.82;;;3.60;;
68178;SDS011;54998;42.656;23.382;2023-02-21T10:44:40;14.07;;;3.83;;
68178;SDS011;54998;42.656;23.382;2023-02-21T10:47:16;10.00;;;4.18;;
68178;SDS011;54998;42.656;23.382;2023-02-21T10:53:04;10.35;;;4.03;;
68178;SDS011;54998;42.656;23.382;2023-02-21T10:55:22;10.23;;;4.43;;
68178;SDS011;54998;42.656;23.382;2023-02-21T11:00:32;7.45;;;3.13;;
68178;SDS011;54998;42.656;23.382;2023-02-21T11:03:05;11.93;;;5.20;;
68178;SDS011;54998;42.656;23.382;2023-02-21T11:05:37;7.68;;;3.33;;
68178;SDS011;54998;42.656;23.382;2023-02-21T11:08:06;5.57;;;3.25;;
68178;SDS011;54998;42.656;23.382;2023-02-21T11:10:37;7.65;;;3.22;;
68178;SDS011;54998;42.656;23.382;2023-02-21T11:13:21;7.53;;;1.58;;
68178;SDS011;54998;42.656;23.382;2023-02-21T11:15:48;3.60;;;1.73;;
68178;SDS011;54998;42.656;23.382;2023-02-21T11:20:46;2.92;;;1.30;;
68178;SDS011;54998;42.656;23.382;2023-02-21T11:23:18;3.97;;;1.60;;
68178;SDS011;54998;42.656;23.382;2023-02-21T11:25:47;3.63;;;1.13;;
68178;SDS011;54998;42.656;23.382;2023-02-21T11:33:24;3.50;;;1.75;;
68178;SDS011;54998;42.656;23.382;2023-02-21T11:35:52;3.33;;;1.40;;
68178;SDS011;54998;42.656;23.382;2023-02-21T11:43:47;2.50;;;1.30;;
68178;SDS011;54998;42.656;23.382;2023-02-21T11:49:31;2.42;;;1.10;;
68178;SDS011;54998;42.656;23.382;2023-02-21T11:51:59;2.08;;;1.00;;
68178;SDS011;54998;42.656;23.382;2023-02-21T11:54:29;2.83;;;1.25;;
68178;SDS011;54998;42.656;23.382;2023-02-21T11:57:01;3.15;;;1.25;;
68178;SDS011;54998;42.656;23.382;2023-02-21T11:59:48;1.95;;;1.02;;
68178;SDS011;54998;42.656;23.382;2023-02-21T12:27:14;4.25;;;1.10;;
68178;SDS011;54998;42.656;23.382;2023-02-21T12:51:00;3.85;;;1.35;;
68178;SDS011;54998;42.656;23.382;2023-02-21T12:58:53;2.85;;;1.30;;
68178;SDS011;54998;42.656;23.382;2023-02-21T13:01:21;7.25;;;2.17;;
68178;SDS011;54998;42.656;23.382;2023-02-21T13:12:08;2.88;;;1.30;;
68178;SDS011;54998;42.656;23.382;2023-02-21T13:14:46;3.97;;;1.60;;
68178;SDS011;54998;42.656;23.382;2023-02-21T13:17:15;4.30;;;1.80;;
68178;SDS011;54998;42.656;23.382;2023-02-21T13:28:54;3.88;;;1.25;;
68178;SDS011;54998;42.656;23.382;2023-02-21T13:31:22;4.10;;;1.90;;
68178;SDS011;54998;42.656;23.382;2023-02-21T13:33:56;2.38;;;1.27;;
68178;SDS011;54998;42.656;23.382;2023-02-21T13:38:58;3.08;;;1.30;;
68178;SDS011;54998;42.656;23.382;2023-02-21T13:41:34;1.80;;;1.10;;
68178;SDS011;54998;42.656;23.382;2023-02-21T13:44:36;3.63;;;1.30;;
68178;SDS011;54998;42.656;23.382;2023-02-21T13:47:01;2.47;;;1.20;;
68178;SDS011;54998;42.656;23.382;2023-02-21T13:57:40;3.42;;;1.65;;
68178;SDS011;54998;42.656;23.382;2023-02-21T14:18:38;2.50;;;1.27;;
68178;SDS011;54998;42.656;23.382;2023-02-21T14:29:08;4.18;;;1.70;;
68178;SDS011;54998;42.656;23.382;2023-02-21T14:32:13;4.03;;;1.50;;
68178;SDS011;54998;42.656;23.382;2023-02-21T14:34:40;2.40;;;1.65;;
68178;SDS011;54998;42.656;23.382;2023-02-21T14:39:47;3.78;;;1.73;;
68178;SDS011;54998;42.656;23.382;2023-02-21T15:01:19;3.45;;;1.52;;
68178;SDS011;54998;42.656;23.382;2023-02-21T15:06:33;4.30;;;1.73;;
68178;SDS011;54998;42.656;23.382;2023-02-21T15:09:09;3.90;;;1.75;;
68178;SDS011;54998;42.656;23.382;2023-02-21T15:11:37;3.83;;;1.83;;
68178;SDS011;54998;42.656;23.382;2023-02-21T15:14:21;4.53;;;1.90;;
68178;SDS011;54998;42.656;23.382;2023-02-21T15:16:49;5.18;;;2.08;;
68178;SDS011;54998;42.656;23.382;2023-02-21T15:19:20;5.47;;;2.30;;
68178;SDS011;54998;42.656;23.382;2023-02-21T15:32:40;3.75;;;1.75;;
68178;SDS011;54998;42.656;23.382;2023-02-21T15:35:10;7.13;;;1.83;;
68178;SDS011;54998;42.656;23.382;2023-02-21T15:37:42;3.67;;;2.00;;
68178;SDS011;54998;42.656;23.382;2023-02-21T15:40:14;4.32;;;2.38;;
68178;SDS011;54998;42.656;23.382;2023-02-21T15:45:11;6.47;;;2.17;;
68178;SDS011;54998;42.656;23.382;2023-02-21T15:47:42;3.50;;;1.80;;
68178;SDS011;54998;42.656;23.382;2023-02-21T15:52:46;3.88;;;2.13;;
68178;SDS011;54998;42.656;23.382;2023-02-21T15:57:55;3.92;;;2.05;;
68178;SDS011;54998;42.656;23.382;2023-02-21T16:02:46;4.68;;;1.90;;
68178;SDS011;54998;42.656;23.382;2023-02-21T16:08:03;5.55;;;2.53;;
68178;SDS011;54998;42.656;23.382;2023-02-21T16:10:29;6.53;;;2.33;;
68178;SDS011;54998;42.656;23.382;2023-02-21T16:12:57;5.10;;;2.47;;
68178;SDS011;54998;42.656;23.382;2023-02-21T16:15:25;4.05;;;2.08;;
68178;SDS011;54998;42.656;23.382;2023-02-21T16:17:57;9.88;;;2.67;;
68178;SDS011;54998;42.656;23.382;2023-02-21T16:28:39;12.27;;;4.07;;
68178;SDS011;54998;42.656;23.382;2023-02-21T16:31:06;7.47;;;2.95;;
68178;SDS011;54998;42.656;23.382;2023-02-21T16:33:33;9.18;;;3.20;;
68178;SDS011;54998;42.656;23.382;2023-02-21T16:36:00;8.88;;;4.00;;
68178;SDS011;54998;42.656;23.382;2023-02-21T16:38:30;10.25;;;4.07;;
68178;SDS011;54998;42.656;23.382;2023-02-21T16:40:56;15.68;;;4.68;;
68178;SDS011;54998;42.656;23.382;2023-02-21T16:43:25;13.88;;;5.00;;
68178;SDS011;54998;42.656;23.382;2023-02-21T16:45:53;13.82;;;4.97;;
68178;SDS011;54998;42.656;23.382;2023-02-21T16:48:21;11.75;;;5.22;;
68178;SDS011;54998;42.656;23.382;2023-02-21T16:50:52;11.63;;;4.70;;
68178;SDS011;54998;42.656;23.382;2023-02-21T16:53:20;12.20;;;4.15;;
68178;SDS011;54998;42.656;23.382;2023-02-21T16:55:47;10.07;;;4.25;;
68178;SDS011;54998;42.656;23.382;2023-02-21T17:00:44;15.27;;;6.13;;
68178;SDS011;54998;42.656;23.382;2023-02-21T17:03:10;11.57;;;5.15;;
68178;SDS011;54998;42.656;23.382;2023-02-21T17:05:35;14.05;;;5.93;;
68178;SDS011;54998;42.656;23.382;2023-02-21T17:08:00;10.93;;;5.35;;
68178;SDS011;54998;42.656;23.382;2023-02-21T17:10:27;16.50;;;6.45;;
68178;SDS011;54998;42.656;23.382;2023-02-21T17:12:53;11.40;;;4.40;;
68178;SDS011;54998;42.656;23.382;2023-02-21T17:15:19;12.70;;;4.55;;
68178;SDS011;54998;42.656;23.382;2023-02-21T17:17:45;7.22;;;3.08;;
68178;SDS011;54998;42.656;23.382;2023-02-21T17:20:16;5.72;;;3.30;;
68178;SDS011;54998;42.656;23.382;2023-02-21T17:22:42;9.88;;;3.10;;
68178;SDS011;54998;42.656;23.382;2023-02-21T17:25:07;5.20;;;2.53;;
68178;SDS011;54998;42.656;23.382;2023-02-21T17:27:33;7.57;;;3.75;;
68178;SDS011;54998;42.656;23.382;2023-02-21T17:29:58;8.80;;;3.30;;
68178;SDS011;54998;42.656;23.382;2023-02-21T17:32:24;7.13;;;3.28;;
68178;SDS011;54998;42.656;23.382;2023-02-21T17:34:51;6.57;;;3.42;;
68178;SDS011;54998;42.656;23.382;2023-02-21T17:37:16;9.20;;;3.58;;
68178;SDS011;54998;42.656;23.382;2023-02-21T17:39:42;8.20;;;3.47;;
68178;SDS011;54998;42.656;23.382;2023-02-21T17:42:07;9.20;;;3.60;;
68178;SDS011;54998;42.656;23.382;2023-02-21T17:44:33;8.07;;;3.92;;
68178;SDS011;54998;42.656;23.382;2023-02-21T17:47:00;9.25;;;3.90;;
68178;SDS011;54998;42.656;23.382;2023-02-21T17:49:26;8.07;;;4.07;;
68178;SDS011;54998;42.656;23.382;2023-02-21T17:51:52;14.20;;;5.32;;
68178;SDS011;54998;42.656;23.382;2023-02-21T17:54:20;9.52;;;4.25;;
68178;SDS011;54998;42.656;23.382;2023-02-21T17:56:47;12.85;;;5.32;;
68178;SDS011;54998;42.656;23.382;2023-02-21T17:59:13;17.65;;;5.90;;
68178;SDS011;54998;42.656;23.382;2023-02-21T18:01:39;17.92;;;5.20;;
68178;SDS011;54998;42.656;23.382;2023-02-21T18:04:06;10.30;;;4.60;;
68178;SDS011;54998;42.656;23.382;2023-02-21T18:06:31;18.27;;;6.13;;
68178;SDS011;54998;42.656;23.382;2023-02-21T18:08:57;14.85;;;6.07;;
68178;SDS011;54998;42.656;23.382;2023-02-21T18:11:23;16.00;;;6.82;;
68178;SDS011;54998;42.656;23.382;2023-02-21T18:13:49;15.88;;;6.70;;
68178;SDS011;54998;42.656;23.382;2023-02-21T18:16:15;19.85;;;7.03;;
68178;SDS011;54998;42.656;23.382;2023-02-21T18:18:40;15.18;;;6.65;;
68178;SDS011;54998;42.656;23.382;2023-02-21T18:21:06;18.52;;;7.28;;
68178;SDS011;54998;42.656;23.382;2023-02-21T18:23:33;21.88;;;7.90;;
68178;SDS011;54998;42.656;23.382;2023-02-21T18:25:59;20.23;;;8.18;;
68178;SDS011;54998;42.656;23.382;2023-02-21T18:28:26;26.73;;;9.70;;
68178;SDS011;54998;42.656;23.382;2023-02-21T18:30:52;25.45;;;8.27;;
68178;SDS011;54998;42.656;23.382;2023-02-21T18:33:19;21.98;;;9.18;;
68178;SDS011;54998;42.656;23.382;2023-02-21T18:35:46;29.90;;;10.07;;
68178;SDS011;54998;42.656;23.382;2023-02-21T18:38:11;17.80;;;8.25;;
68178;SDS011;54998;42.656;23.382;2023-02-21T18:40:40;23.08;;;8.82;;
68178;SDS011;54998;42.656;23.382;2023-02-21T18:43:25;21.50;;;7.22;;
68178;SDS011;54998;42.656;23.382;2023-02-21T18:45:53;24.00;;;9.25;;
68178;SDS011;54998;42.656;23.382;2023-02-21T18:48:20;17.52;;;7.70;;
68178;SDS011;54998;42.656;23.382;2023-02-21T18:50:47;25.25;;;9.63;;
68178;SDS011;54998;42.656;23.382;2023-02-21T18:53:13;23.42;;;9.27;;
68178;SDS011;54998;42.656;23.382;2023-02-21T18:55:39;18.17;;;8.07;;
68178;SDS011;54998;42.656;23.382;2023-02-21T18:58:05;15.73;;;6.40;;
68178;SDS011;54998;42.656;23.382;2023-02-21T19:02:59;16.58;;;6.78;;
68178;SDS011;54998;42.656;23.382;2023-02-21T19:05:25;14.43;;;5.40;;